sensor_id;sensor_type;location;lat;lon;timestamp;P1;durP1;ratioP1;P2;durP2;ratioP2
29236;SDS011;16266;50.866;4.398;2023-06-19T00:00:07;1999.90;;;999.90;;
29236;SDS011;16266;50.866;4.398;2023-06-19T00:02:40;1999.90;;;999.90;;
29236;SDS011;16266;50.866;4.398;2023-06-19T00:05:07;1999.90;;;999.90;;
29236;SDS011;16266;50.866;4.398;2023-06-19T00:07:33;1999.90;;;999.90;;
29236;SDS011;16266;50.866;4.398;2023-06-19T00:10:03;1999.90;;;999.90;;
29236;SDS011;16266;50.866;4.398;2023-06-19T00:12:29;1999.90;;;999.90;;
29236;SDS011;16266;50.866;4.398;2023-06-19T00:14:54;1999.90;;;999.90;;
29236;SDS011;16266;50.866;4.398;2023-06-19T00:17:20;1999.90;;;999.90;;
29236;SDS011;16266;50.866;4.398;2023-06-19T00:19:45;1999.90;;;999.90;;
29236;SDS011;16266;50.866;4.398;2023-06-19T00:22:13;1999.90;;;999.90;;
29236;SDS011;16266;50.866;4.398;2023-06-19T00:24:40;1999.90;;;999.90;;
29236;SDS011;16266;50.866;4.398;2023-06-19T00:27:05;1999.90;;;999.90;;
29236;SDS011;16266;50.866;4.398;2023-06-19T00:29:32;1999.90;;;999.90;;
29236;SDS011;16266;50.866;4.398;2023-06-19T00:31:58;1999.90;;;999.90;;
29236;SDS011;16266;50.866;4.398;2023-06-19T00:34:24;1999.90;;;999.90;;
29236;SDS011;16266;50.866;4.398;2023-06-19T00:36:53;1999.90;;;999.90;;
29236;SDS011;16266;50.866;4.398;2023-06-19T00:39:24;1999.90;;;999.90;;
29236;SDS011;16266;50.866;4.398;2023-06-19T00:41:54;1999.90;;;999.90;;
29236;SDS011;16266;50.866;4.398;2023-06-19T00:44:20;1999.90;;;999.90;;
29236;SDS011;16266;50.866;4.398;2023-06-19T00:46:49;1999.90;;;999.90;;
29236;SDS011;16266;50.866;4.398;2023-06-19T00:49:20;1999.90;;;999.90;;
29236;SDS011;16266;50.866;4.398;2023-06-19T00:51:46;1999.90;;;999.90;;
29236;SDS011;16266;50.866;4.398;2023-06-19T00:54:12;1999.90;;;999.90;;
29236;SDS011;16266;50.866;4.398;2023-06-19T00:56:38;1999.90;;;999.90;;
29236;SDS011;16266;50.866;4.398;2023-06-19T00:59:11;1999.90;;;999.90;;
29236;SDS011;16266;50.866;4.398;2023-06-19T01:01:43;1999.90;;;999.90;;
29236;SDS011;16266;50.866;4.398;2023-06-19T01:04:10;1999.90;;;999.90;;
29236;SDS011;16266;50.866;4.398;2023-06-19T01:06:42;1999.90;;;999.90;;
29236;SDS011;16266;50.866;4.398;2023-06-19T01:09:17;1999.90;;;999.90;;
29236;SDS011;16266;50.866;4.398;2023-06-19T01:11:52;1999.90;;;999.90;;
29236;SDS011;16266;50.866;4.398;2023-06-19T01:14:44;1999.90;;;999.90;;
29236;SDS011;16266;50.866;4.398;2023-06-19T01:17:18;1999.90;;;999.90;;
29236;SDS011;16266;50.866;4.398;2023-06-19T01:19:45;1999.90;;;999.90;;
29236;SDS011;16266;50.866;4.398;2023-06-19T01:22:11;1999.90;;;999.90;;
29236;SDS011;16266;50.866;4.398;2023-06-19T01:24:46;1999.90;;;999.90;;
29236;SDS011;16266;50.866;4.398;2023-06-19T01:27:12;1999.90;;;999.90;;
29236;SDS011;16266;50.866;4.398;2023-06-19T01:29:38;1999.90;;;999.90;;
29236;SDS011;16266;50.866;4.398;2023-06-19T01:32:05;1999.90;;;999.90;;
29236;SDS011;16266;50.866;4.398;2023-06-19T01:34:35;1999.90;;;999.90;;
29236;SDS011;16266;50.866;4.398;2023-06-19T01:37:03;1999.90;;;999.90;;
29236;SDS011;16266;50.866;4.398;2023-06-19T01:39:31;1999.90;;;999.90;;
29236;SDS011;16266;50.866;4.398;2023-06-19T01:41:57;1999.90;;;999.90;;
29236;SDS011;16266;50.866;4.398;2023-06-19T01:44:24;1999.90;;;999.90;;
29236;SDS011;16266;50.866;4.398;2023-06-19T01:46:50;1999.90;;;999.90;;
29236;SDS011;16266;50.866;4.398;2023-06-19T01:49:16;1999.90;;;999.90;;
29236;SDS011;16266;50.866;4.398;2023-06-19T01:51:43;1999.90;;;999.90;;
29236;SDS011;16266;50.866;4.398;2023-06-19T01:54:08;1999.90;;;999.90;;
29236;SDS011;16266;50.866;4.398;2023-06-19T01:56:34;1999.90;;;999.90;;
29236;SDS011;16266;50.866;4.398;2023-06-19T01:59:00;1999.90;;;999.90;;
29236;SDS011;16266;50.866;4.398;2023-06-19T02:01:26;1999.90;;;999.90;;
29236;SDS011;16266;50.866;4.398;2023-06-19T02:03:52;1999.90;;;999.90;;
29236;SDS011;16266;50.866;4.398;2023-06-19T02:06:17;1999.90;;;999.90;;
29236;SDS011;16266;50.866;4.398;2023-06-19T02:08:43;1999.90;;;999.90;;
29236;SDS011;16266;50.866;4.398;2023-06-19T02:11:09;1999.90;;;999.90;;
29236;SDS011;16266;50.866;4.398;2023-06-19T02:13:35;1999.90;;;999.90;;
29236;SDS011;16266;50.866;4.398;2023-06-19T02:16:00;1999.90;;;999.90;;
29236;SDS011;16266;50.866;4.398;2023-06-19T02:18:26;1999.90;;;999.90;;
29236;SDS011;16266;50.866;4.398;2023-06-19T02:20:52;1999.90;;;999.90;;
29236;SDS011;16266;50.866;4.398;2023-06-19T02:23:17;1999.90;;;999.90;;
29236;SDS011;16266;50.866;4.398;2023-06-19T02:25:43;1999.90;;;999.90;;
29236;SDS011;16266;50.866;4.398;2023-06-19T02:28:08;1999.90;;;999.90;;
29236;SDS011;16266;50.866;4.398;2023-06-19T02:30:34;1999.90;;;999.90;;
29236;SDS011;16266;50.866;4.398;2023-06-19T02:33:00;1999.90;;;999.90;;
29236;SDS011;16266;50.866;4.398;2023-06-19T02:35:26;1999.90;;;999.90;;
29236;SDS011;16266;50.866;4.398;2023-06-19T02:37:51;1999.90;;;999.90;;
29236;SDS011;16266;50.866;4.398;2023-06-19T02:40:17;1999.90;;;999.90;;
29236;SDS011;16266;50.866;4.398;2023-06-19T02:42:44;1999.90;;;999.90;;
29236;SDS011;16266;50.866;4.398;2023-06-19T02:45:09;1999.90;;;999.90;;
29236;SDS011;16266;50.866;4.398;2023-06-19T02:47:35;1999.90;;;999.90;;
29236;SDS011;16266;50.866;4.398;2023-06-19T02:50:02;1999.90;;;999.90;;
29236;SDS011;16266;50.866;4.398;2023-06-19T02:52:29;1999.90;;;999.90;;
29236;SDS011;16266;50.866;4.398;2023-06-19T02:54:54;1999.90;;;999.90;;
29236;SDS011;16266;50.866;4.398;2023-06-19T02:57:22;1999.90;;;999.90;;
29236;SDS011;16266;50.866;4.398;2023-06-19T02:59:51;1999.90;;;999.90;;
29236;SDS011;16266;50.866;4.398;2023-06-19T03:02:23;1999.90;;;999.90;;
29236;SDS011;16266;50.866;4.398;2023-06-19T03:04:49;1999.90;;;999.90;;
29236;SDS011;16266;50.866;4.398;2023-06-19T03:07:15;1999.90;;;999.90;;
29236;SDS011;16266;50.866;4.398;2023-06-19T03:09:41;1999.90;;;999.90;;
29236;SDS011;16266;50.866;4.398;2023-06-19T03:12:07;1999.90;;;999.90;;
29236;SDS011;16266;50.866;4.398;2023-06-19T03:14:34;1999.90;;;999.90;;
29236;SDS011;16266;50.866;4.398;2023-06-19T03:17:00;1999.90;;;999.90;;
29236;SDS011;16266;50.866;4.398;2023-06-19T03:19:26;1999.90;;;999.90;;
29236;SDS011;16266;50.866;4.398;2023-06-19T03:21:51;1999.90;;;999.90;;
29236;SDS011;16266;50.866;4.398;2023-06-19T03:24:17;1999.90;;;999.90;;
29236;SDS011;16266;50.866;4.398;2023-06-19T03:26:43;1999.90;;;999.90;;
29236;SDS011;16266;50.866;4.398;2023-06-19T03:29:08;1999.90;;;999.90;;
29236;SDS011;16266;50.866;4.398;2023-06-19T03:31:34;1999.90;;;999.90;;
29236;SDS011;16266;50.866;4.398;2023-06-19T03:34:00;1999.90;;;999.90;;
29236;SDS011;16266;50.866;4.398;2023-06-19T03:36:25;1999.90;;;999.90;;
29236;SDS011;16266;50.866;4.398;2023-06-19T03:38:51;1999.90;;;999.90;;
29236;SDS011;16266;50.866;4.398;2023-06-19T03:41:19;1999.90;;;999.90;;
29236;SDS011;16266;50.866;4.398;2023-06-19T03:43:45;1999.90;;;999.90;;
29236;SDS011;16266;50.866;4.398;2023-06-19T03:46:10;1999.90;;;999.90;;
29236;SDS011;16266;50.866;4.398;2023-06-19T03:48:36;1999.90;;;999.90;;
29236;SDS011;16266;50.866;4.398;2023-06-19T03:51:01;1999.90;;;999.90;;
29236;SDS011;16266;50.866;4.398;2023-06-19T03:53:27;1999.90;;;999.90;;
29236;SDS011;16266;50.866;4.398;2023-06-19T03:55:53;1999.90;;;999.90;;
29236;SDS011;16266;50.866;4.398;2023-06-19T03:58:18;1999.90;;;999.90;;
29236;SDS011;16266;50.866;4.398;2023-06-19T04:00:44;1999.90;;;999.90;;
29236;SDS011;16266;50.866;4.398;2023-06-19T04:03:10;1999.90;;;999.90;;
29236;SDS011;16266;50.866;4.398;2023-06-19T04:05:35;1999.90;;;999.90;;
29236;SDS011;16266;50.866;4.398;2023-06-19T04:08:02;1999.90;;;999.90;;
29236;SDS011;16266;50.866;4.398;2023-06-19T04:10:29;1999.90;;;999.90;;
29236;SDS011;16266;50.866;4.398;2023-06-19T04:12:54;1999.90;;;999.90;;
29236;SDS011;16266;50.866;4.398;2023-06-19T04:15:21;1999.90;;;999.90;;
29236;SDS011;16266;50.866;4.398;2023-06-19T04:17:47;1999.90;;;999.90;;
29236;SDS011;16266;50.866;4.398;2023-06-19T04:20:12;1999.90;;;999.90;;
29236;SDS011;16266;50.866;4.398;2023-06-19T04:22:39;1999.90;;;999.90;;
29236;SDS011;16266;50.866;4.398;2023-06-19T04:25:06;1999.90;;;999.90;;
29236;SDS011;16266;50.866;4.398;2023-06-19T04:27:33;1999.90;;;999.90;;
29236;SDS011;16266;50.866;4.398;2023-06-19T04:29:59;1999.90;;;999.90;;
29236;SDS011;16266;50.866;4.398;2023-06-19T04:32:25;1999.90;;;999.90;;
29236;SDS011;16266;50.866;4.398;2023-06-19T04:34:51;1999.90;;;999.90;;
29236;SDS011;16266;50.866;4.398;2023-06-19T04:37:18;1999.90;;;999.90;;
29236;SDS011;16266;50.866;4.398;2023-06-19T04:39:46;1999.90;;;999.90;;
29236;SDS011;16266;50.866;4.398;2023-06-19T04:42:18;1999.90;;;999.90;;
29236;SDS011;16266;50.866;4.398;2023-06-19T04:44:45;1999.90;;;999.90;;
29236;SDS011;16266;50.866;4.398;2023-06-19T04:47:11;1999.90;;;999.90;;
29236;SDS011;16266;50.866;4.398;2023-06-19T04:49:37;1999.90;;;999.90;;
29236;SDS011;16266;50.866;4.398;2023-06-19T04:52:03;1999.90;;;999.90;;
29236;SDS011;16266;50.866;4.398;2023-06-19T04:54:29;1999.90;;;999.90;;
29236;SDS011;16266;50.866;4.398;2023-06-19T04:56:57;1999.90;;;999.90;;
29236;SDS011;16266;50.866;4.398;2023-06-19T04:59:23;1999.90;;;999.90;;
29236;SDS011;16266;50.866;4.398;2023-06-19T05:01:49;1999.90;;;999.90;;
29236;SDS011;16266;50.866;4.398;2023-06-19T05:04:18;1999.90;;;999.90;;
29236;SDS011;16266;50.866;4.398;2023-06-19T05:06:45;1999.90;;;999.90;;
29236;SDS011;16266;50.866;4.398;2023-06-19T05:09:10;1999.90;;;999.90;;
29236;SDS011;16266;50.866;4.398;2023-06-19T05:11:36;1999.90;;;999.90;;
29236;SDS011;16266;50.866;4.398;2023-06-19T05:14:02;1999.90;;;999.90;;
29236;SDS011;16266;50.866;4.398;2023-06-19T05:16:28;1999.90;;;999.90;;
29236;SDS011;16266;50.866;4.398;2023-06-19T05:18:53;1999.90;;;999.90;;
29236;SDS011;16266;50.866;4.398;2023-06-19T05:21:19;1999.90;;;999.90;;
29236;SDS011;16266;50.866;4.398;2023-06-19T05:23:45;1999.90;;;999.90;;
29236;SDS011;16266;50.866;4.398;2023-06-19T05:28:44;1999.90;;;999.90;;
29236;SDS011;16266;50.866;4.398;2023-06-19T05:31:09;1999.90;;;999.90;;
29236;SDS011;16266;50.866;4.398;2023-06-19T05:33:35;1999.90;;;999.90;;
29236;SDS011;16266;50.866;4.398;2023-06-19T05:36:01;1999.90;;;999.90;;
29236;SDS011;16266;50.866;4.398;2023-06-19T05:38:26;1999.90;;;999.90;;
29236;SDS011;16266;50.866;4.398;2023-06-19T05:40:55;1999.90;;;999.90;;
29236;SDS011;16266;50.866;4.398;2023-06-19T05:43:21;1999.90;;;999.90;;
29236;SDS011;16266;50.866;4.398;2023-06-19T05:45:47;1999.90;;;999.90;;
29236;SDS011;16266;50.866;4.398;2023-06-19T05:48:15;1999.90;;;999.90;;
29236;SDS011;16266;50.866;4.398;2023-06-19T05:50:40;1999.90;;;999.90;;
29236;SDS011;16266;50.866;4.398;2023-06-19T05:53:06;1999.90;;;999.90;;
29236;SDS011;16266;50.866;4.398;2023-06-19T05:55:32;1999.90;;;999.90;;
29236;SDS011;16266;50.866;4.398;2023-06-19T05:57:57;1999.90;;;999.90;;
29236;SDS011;16266;50.866;4.398;2023-06-19T06:00:23;1999.90;;;999.90;;
29236;SDS011;16266;50.866;4.398;2023-06-19T06:02:50;1999.90;;;999.90;;
29236;SDS011;16266;50.866;4.398;2023-06-19T06:05:18;1999.90;;;999.90;;
29236;SDS011;16266;50.866;4.398;2023-06-19T06:07:51;1999.90;;;999.90;;
29236;SDS011;16266;50.866;4.398;2023-06-19T06:10:19;1999.90;;;999.90;;
29236;SDS011;16266;50.866;4.398;2023-06-19T06:12:48;1999.90;;;999.90;;
29236;SDS011;16266;50.866;4.398;2023-06-19T06:15:15;1999.90;;;999.90;;
29236;SDS011;16266;50.866;4.398;2023-06-19T06:17:42;1999.90;;;999.90;;
29236;SDS011;16266;50.866;4.398;2023-06-19T06:20:08;1999.90;;;999.90;;
29236;SDS011;16266;50.866;4.398;2023-06-19T06:22:37;1999.90;;;999.90;;
29236;SDS011;16266;50.866;4.398;2023-06-19T06:25:07;1999.90;;;999.90;;
29236;SDS011;16266;50.866;4.398;2023-06-19T06:27:33;1999.90;;;999.90;;
29236;SDS011;16266;50.866;4.398;2023-06-19T06:29:59;1999.90;;;999.90;;
29236;SDS011;16266;50.866;4.398;2023-06-19T06:32:25;1999.90;;;999.90;;
29236;SDS011;16266;50.866;4.398;2023-06-19T06:34:52;1999.90;;;999.90;;
29236;SDS011;16266;50.866;4.398;2023-06-19T06:37:18;1999.90;;;999.90;;
29236;SDS011;16266;50.866;4.398;2023-06-19T06:39:47;1999.90;;;999.90;;
29236;SDS011;16266;50.866;4.398;2023-06-19T06:42:14;1999.90;;;999.90;;
29236;SDS011;16266;50.866;4.398;2023-06-19T06:44:40;1999.90;;;999.90;;
29236;SDS011;16266;50.866;4.398;2023-06-19T06:47:05;1999.90;;;999.90;;
29236;SDS011;16266;50.866;4.398;2023-06-19T06:49:31;1999.90;;;999.90;;
29236;SDS011;16266;50.866;4.398;2023-06-19T06:51:57;1999.90;;;999.90;;
29236;SDS011;16266;50.866;4.398;2023-06-19T06:54:22;1999.90;;;999.90;;
29236;SDS011;16266;50.866;4.398;2023-06-19T06:56:48;1999.90;;;999.90;;
29236;SDS011;16266;50.866;4.398;2023-06-19T06:59:14;1999.90;;;999.90;;
29236;SDS011;16266;50.866;4.398;2023-06-19T07:01:44;1999.90;;;999.90;;
29236;SDS011;16266;50.866;4.398;2023-06-19T07:04:10;1999.90;;;999.90;;
29236;SDS011;16266;50.866;4.398;2023-06-19T07:06:36;1999.90;;;999.90;;
29236;SDS011;16266;50.866;4.398;2023-06-19T07:09:01;1999.90;;;999.90;;
29236;SDS011;16266;50.866;4.398;2023-06-19T07:11:27;1999.90;;;999.90;;
29236;SDS011;16266;50.866;4.398;2023-06-19T07:13:53;1999.90;;;999.90;;
29236;SDS011;16266;50.866;4.398;2023-06-19T07:16:18;1999.90;;;999.90;;
29236;SDS011;16266;50.866;4.398;2023-06-19T07:18:44;1999.90;;;999.90;;
29236;SDS011;16266;50.866;4.398;2023-06-19T07:21:11;1999.90;;;999.90;;
29236;SDS011;16266;50.866;4.398;2023-06-19T07:23:40;1999.90;;;999.90;;
29236;SDS011;16266;50.866;4.398;2023-06-19T07:26:07;1999.90;;;999.90;;
29236;SDS011;16266;50.866;4.398;2023-06-19T07:28:34;1999.90;;;999.90;;
29236;SDS011;16266;50.866;4.398;2023-06-19T07:31:01;1999.90;;;999.90;;
29236;SDS011;16266;50.866;4.398;2023-06-19T07:33:28;1999.90;;;999.90;;
29236;SDS011;16266;50.866;4.398;2023-06-19T07:35:54;1999.90;;;999.90;;
29236;SDS011;16266;50.866;4.398;2023-06-19T07:38:21;1999.90;;;999.90;;
29236;SDS011;16266;50.866;4.398;2023-06-19T07:40:47;1999.90;;;999.90;;
29236;SDS011;16266;50.866;4.398;2023-06-19T07:43:12;1999.90;;;999.90;;
29236;SDS011;16266;50.866;4.398;2023-06-19T07:45:38;1999.90;;;999.90;;
29236;SDS011;16266;50.866;4.398;2023-06-19T07:48:04;1999.90;;;999.90;;
29236;SDS011;16266;50.866;4.398;2023-06-19T07:50:29;1999.90;;;999.90;;
29236;SDS011;16266;50.866;4.398;2023-06-19T07:52:57;1999.90;;;999.90;;
29236;SDS011;16266;50.866;4.398;2023-06-19T07:55:22;1999.90;;;999.90;;
29236;SDS011;16266;50.866;4.398;2023-06-19T07:57:48;1999.90;;;999.90;;
29236;SDS011;16266;50.866;4.398;2023-06-19T08:00:14;1999.90;;;999.90;;
29236;SDS011;16266;50.866;4.398;2023-06-19T08:02:41;1999.90;;;999.90;;
29236;SDS011;16266;50.866;4.398;2023-06-19T08:05:07;1999.90;;;999.90;;
29236;SDS011;16266;50.866;4.398;2023-06-19T08:07:34;1999.90;;;999.90;;
29236;SDS011;16266;50.866;4.398;2023-06-19T08:10:01;1999.90;;;999.90;;
29236;SDS011;16266;50.866;4.398;2023-06-19T08:12:28;1999.90;;;999.90;;
29236;SDS011;16266;50.866;4.398;2023-06-19T08:14:54;1999.90;;;999.90;;
29236;SDS011;16266;50.866;4.398;2023-06-19T08:17:20;1999.90;;;999.90;;
29236;SDS011;16266;50.866;4.398;2023-06-19T08:19:46;1706.25;;;941.95;;
29236;SDS011;16266;50.866;4.398;2023-06-19T08:22:12;813.63;;;759.97;;
29236;SDS011;16266;50.866;4.398;2023-06-19T08:24:38;1999.90;;;999.90;;
29236;SDS011;16266;50.866;4.398;2023-06-19T08:27:06;1999.90;;;999.90;;
29236;SDS011;16266;50.866;4.398;2023-06-19T08:29:32;751.03;;;704.10;;
29236;SDS011;16266;50.866;4.398;2023-06-19T08:31:58;728.13;;;682.22;;
29236;SDS011;16266;50.866;4.398;2023-06-19T08:34:24;678.20;;;636.95;;
29236;SDS011;16266;50.866;4.398;2023-06-19T08:36:49;692.33;;;650.03;;
29236;SDS011;16266;50.866;4.398;2023-06-19T08:39:15;730.70;;;685.10;;
29236;SDS011;16266;50.866;4.398;2023-06-19T08:41:41;832.00;;;775.67;;
29236;SDS011;16266;50.866;4.398;2023-06-19T08:44:07;769.90;;;720.92;;
29236;SDS011;16266;50.866;4.398;2023-06-19T08:46:35;781.03;;;731.58;;
29236;SDS011;16266;50.866;4.398;2023-06-19T08:49:03;694.55;;;653.15;;
29236;SDS011;16266;50.866;4.398;2023-06-19T08:51:31;687.88;;;647.58;;
29236;SDS011;16266;50.866;4.398;2023-06-19T08:54:01;704.40;;;663.17;;
29236;SDS011;16266;50.866;4.398;2023-06-19T08:56:29;689.33;;;648.53;;
29236;SDS011;16266;50.866;4.398;2023-06-19T08:59:07;618.30;;;583.80;;
29236;SDS011;16266;50.866;4.398;2023-06-19T09:01:34;555.92;;;525.80;;
29236;SDS011;16266;50.866;4.398;2023-06-19T09:03:59;632.17;;;596.47;;
29236;SDS011;16266;50.866;4.398;2023-06-19T09:06:32;617.40;;;581.97;;
29236;SDS011;16266;50.866;4.398;2023-06-19T09:08:58;1999.90;;;999.90;;
29236;SDS011;16266;50.866;4.398;2023-06-19T09:11:25;1999.90;;;999.90;;
29236;SDS011;16266;50.866;4.398;2023-06-19T09:13:59;1999.90;;;999.90;;
29236;SDS011;16266;50.866;4.398;2023-06-19T09:16:26;1999.90;;;999.90;;
29236;SDS011;16266;50.866;4.398;2023-06-19T09:19:02;1999.90;;;999.90;;
29236;SDS011;16266;50.866;4.398;2023-06-19T09:21:28;1999.90;;;999.90;;
29236;SDS011;16266;50.866;4.398;2023-06-19T09:23:55;605.75;;;571.90;;
29236;SDS011;16266;50.866;4.398;2023-06-19T09:26:28;610.17;;;576.40;;
29236;SDS011;16266;50.866;4.398;2023-06-19T09:28:53;1999.90;;;999.90;;
29236;SDS011;16266;50.866;4.398;2023-06-19T09:31:19;1648.50;;;890.28;;
29236;SDS011;16266;50.866;4.398;2023-06-19T09:33:48;1999.90;;;999.90;;
29236;SDS011;16266;50.866;4.398;2023-06-19T09:36:13;1999.90;;;999.90;;
29236;SDS011;16266;50.866;4.398;2023-06-19T09:38:39;1999.90;;;999.90;;
29236;SDS011;16266;50.866;4.398;2023-06-19T09:41:06;1999.90;;;999.90;;
29236;SDS011;16266;50.866;4.398;2023-06-19T09:43:42;1999.90;;;999.90;;
29236;SDS011;16266;50.866;4.398;2023-06-19T09:46:09;1999.90;;;999.90;;
29236;SDS011;16266;50.866;4.398;2023-06-19T09:48:39;1999.90;;;999.90;;
29236;SDS011;16266;50.866;4.398;2023-06-19T09:51:22;1999.90;;;999.90;;
29236;SDS011;16266;50.866;4.398;2023-06-19T09:53:53;1999.90;;;999.90;;
29236;SDS011;16266;50.866;4.398;2023-06-19T09:56:21;1999.90;;;999.90;;
29236;SDS011;16266;50.866;4.398;2023-06-19T09:58:49;1999.90;;;999.90;;
29236;SDS011;16266;50.866;4.398;2023-06-19T10:01:17;1999.90;;;999.90;;
29236;SDS011;16266;50.866;4.398;2023-06-19T10:03:44;1999.90;;;999.90;;
29236;SDS011;16266;50.866;4.398;2023-06-19T10:06:13;1999.90;;;999.90;;
29236;SDS011;16266;50.866;4.398;2023-06-19T10:08:50;1999.90;;;999.90;;
29236;SDS011;16266;50.866;4.398;2023-06-19T10:11:43;1999.90;;;999.90;;
29236;SDS011;16266;50.866;4.398;2023-06-19T10:14:13;1999.90;;;999.90;;
29236;SDS011;16266;50.866;4.398;2023-06-19T10:16:40;1999.90;;;999.90;;
29236;SDS011;16266;50.866;4.398;2023-06-19T10:19:18;1999.90;;;999.90;;
29236;SDS011;16266;50.866;4.398;2023-06-19T10:21:49;1999.90;;;999.90;;
29236;SDS011;16266;50.866;4.398;2023-06-19T10:24:18;618.28;;;584.47;;
29236;SDS011;16266;50.866;4.398;2023-06-19T10:27:05;599.70;;;568.33;;
29236;SDS011;16266;50.866;4.398;2023-06-19T10:29:40;637.67;;;603.60;;
29236;SDS011;16266;50.866;4.398;2023-06-19T10:32:06;683.20;;;645.60;;
29236;SDS011;16266;50.866;4.398;2023-06-19T10:34:35;752.30;;;708.13;;
29236;SDS011;16266;50.866;4.398;2023-06-19T10:39:27;695.78;;;658.03;;
29236;SDS011;16266;50.866;4.398;2023-06-19T10:41:53;720.35;;;679.80;;
29236;SDS011;16266;50.866;4.398;2023-06-19T10:44:18;699.05;;;660.15;;
29236;SDS011;16266;50.866;4.398;2023-06-19T10:46:44;692.08;;;652.92;;
29236;SDS011;16266;50.866;4.398;2023-06-19T10:49:10;654.22;;;618.00;;
29236;SDS011;16266;50.866;4.398;2023-06-19T10:51:38;665.13;;;628.58;;
29236;SDS011;16266;50.866;4.398;2023-06-19T10:54:05;593.60;;;562.67;;
29236;SDS011;16266;50.866;4.398;2023-06-19T10:56:32;556.00;;;528.30;;
29236;SDS011;16266;50.866;4.398;2023-06-19T10:59:06;589.40;;;559.45;;
29236;SDS011;16266;50.866;4.398;2023-06-19T11:01:46;673.42;;;635.55;;
29236;SDS011;16266;50.866;4.398;2023-06-19T11:04:14;649.53;;;613.15;;
29236;SDS011;16266;50.866;4.398;2023-06-19T11:06:42;648.92;;;613.25;;
29236;SDS011;16266;50.866;4.398;2023-06-19T11:09:10;650.97;;;615.17;;
29236;SDS011;16266;50.866;4.398;2023-06-19T11:11:41;727.70;;;686.22;;
29236;SDS011;16266;50.866;4.398;2023-06-19T11:14:07;738.83;;;696.47;;
29236;SDS011;16266;50.866;4.398;2023-06-19T11:16:34;761.63;;;717.08;;
29236;SDS011;16266;50.866;4.398;2023-06-19T11:19:03;790.72;;;742.35;;
29236;SDS011;16266;50.866;4.398;2023-06-19T11:21:29;768.58;;;722.60;;
29236;SDS011;16266;50.866;4.398;2023-06-19T11:24:04;755.95;;;710.70;;
29236;SDS011;16266;50.866;4.398;2023-06-19T11:26:37;739.28;;;694.22;;
29236;SDS011;16266;50.866;4.398;2023-06-19T11:31:43;655.20;;;618.85;;
29236;SDS011;16266;50.866;4.398;2023-06-19T11:34:09;677.78;;;637.72;;
29236;SDS011;16266;50.866;4.398;2023-06-19T11:36:37;670.35;;;630.80;;
29236;SDS011;16266;50.866;4.398;2023-06-19T11:39:03;712.38;;;667.30;;
29236;SDS011;16266;50.866;4.398;2023-06-19T11:41:32;763.88;;;713.78;;
29236;SDS011;16266;50.866;4.398;2023-06-19T11:43:58;831.28;;;774.88;;
29236;SDS011;16266;50.866;4.398;2023-06-19T11:46:29;853.50;;;796.40;;
29236;SDS011;16266;50.866;4.398;2023-06-19T11:49:06;863.20;;;805.28;;
29236;SDS011;16266;50.866;4.398;2023-06-19T11:51:33;826.33;;;772.65;;
29236;SDS011;16266;50.866;4.398;2023-06-19T11:53:58;826.70;;;771.58;;
29236;SDS011;16266;50.866;4.398;2023-06-19T11:56:24;833.08;;;778.13;;
29236;SDS011;16266;50.866;4.398;2023-06-19T11:58:50;821.75;;;768.28;;
29236;SDS011;16266;50.866;4.398;2023-06-19T12:01:15;828.25;;;773.30;;
29236;SDS011;16266;50.866;4.398;2023-06-19T12:03:41;822.78;;;767.17;;
29236;SDS011;16266;50.866;4.398;2023-06-19T12:06:07;829.85;;;774.90;;
29236;SDS011;16266;50.866;4.398;2023-06-19T12:08:33;826.67;;;771.58;;
29236;SDS011;16266;50.866;4.398;2023-06-19T12:10:58;829.35;;;774.55;;
29236;SDS011;16266;50.866;4.398;2023-06-19T12:13:24;827.25;;;773.47;;
29236;SDS011;16266;50.866;4.398;2023-06-19T12:15:50;802.05;;;750.95;;
29236;SDS011;16266;50.866;4.398;2023-06-19T12:18:15;815.58;;;763.00;;
29236;SDS011;16266;50.866;4.398;2023-06-19T12:20:41;839.92;;;785.58;;
29236;SDS011;16266;50.866;4.398;2023-06-19T12:23:14;822.17;;;769.97;;
29236;SDS011;16266;50.866;4.398;2023-06-19T12:25:40;832.80;;;778.88;;
29236;SDS011;16266;50.866;4.398;2023-06-19T12:28:05;826.58;;;772.95;;
29236;SDS011;16266;50.866;4.398;2023-06-19T12:30:33;866.42;;;808.28;;
29236;SDS011;16266;50.866;4.398;2023-06-19T12:32:59;850.50;;;793.50;;
29236;SDS011;16266;50.866;4.398;2023-06-19T12:35:25;841.83;;;785.95;;
29236;SDS011;16266;50.866;4.398;2023-06-19T12:37:51;861.13;;;803.92;;
29236;SDS011;16266;50.866;4.398;2023-06-19T12:40:17;784.80;;;735.60;;
29236;SDS011;16266;50.866;4.398;2023-06-19T12:42:43;777.03;;;728.58;;
29236;SDS011;16266;50.866;4.398;2023-06-19T12:45:10;786.58;;;736.63;;
29236;SDS011;16266;50.866;4.398;2023-06-19T12:47:36;813.13;;;761.13;;
29236;SDS011;16266;50.866;4.398;2023-06-19T12:50:02;789.25;;;739.45;;
29236;SDS011;16266;50.866;4.398;2023-06-19T12:52:28;787.45;;;738.65;;
29236;SDS011;16266;50.866;4.398;2023-06-19T12:54:55;773.25;;;724.58;;
29236;SDS011;16266;50.866;4.398;2023-06-19T12:57:22;780.00;;;731.25;;
29236;SDS011;16266;50.866;4.398;2023-06-19T12:59:49;784.92;;;736.10;;
29236;SDS011;16266;50.866;4.398;2023-06-19T13:04:43;625.60;;;590.88;;
29236;SDS011;16266;50.866;4.398;2023-06-19T13:09:40;601.97;;;568.17;;
29236;SDS011;16266;50.866;4.398;2023-06-19T13:12:13;631.05;;;595.25;;
29236;SDS011;16266;50.866;4.398;2023-06-19T13:14:39;617.08;;;581.97;;
29236;SDS011;16266;50.866;4.398;2023-06-19T13:17:05;635.33;;;598.17;;
29236;SDS011;16266;50.866;4.398;2023-06-19T13:19:31;679.22;;;640.53;;
29236;SDS011;16266;50.866;4.398;2023-06-19T13:21:57;692.92;;;653.75;;
29236;SDS011;16266;50.866;4.398;2023-06-19T13:24:22;684.70;;;645.60;;
29236;SDS011;16266;50.866;4.398;2023-06-19T13:26:54;630.38;;;594.15;;
29236;SDS011;16266;50.866;4.398;2023-06-19T13:29:20;1999.90;;;999.90;;
29236;SDS011;16266;50.866;4.398;2023-06-19T13:31:46;1999.90;;;999.90;;
29236;SDS011;16266;50.866;4.398;2023-06-19T13:34:11;1656.68;;;897.85;;
29236;SDS011;16266;50.866;4.398;2023-06-19T13:36:37;1664.60;;;905.25;;
29236;SDS011;16266;50.866;4.398;2023-06-19T13:39:04;1999.90;;;999.90;;
29236;SDS011;16266;50.866;4.398;2023-06-19T13:41:30;1999.90;;;999.90;;
29236;SDS011;16266;50.866;4.398;2023-06-19T13:43:58;1999.90;;;999.90;;
29236;SDS011;16266;50.866;4.398;2023-06-19T13:46:25;1311.13;;;794.15;;
29236;SDS011;16266;50.866;4.398;2023-06-19T13:48:51;1999.90;;;999.90;;
29236;SDS011;16266;50.866;4.398;2023-06-19T13:51:17;1999.90;;;999.90;;
29236;SDS011;16266;50.866;4.398;2023-06-19T13:53:44;1999.90;;;999.90;;
29236;SDS011;16266;50.866;4.398;2023-06-19T13:56:11;1999.90;;;999.90;;
29236;SDS011;16266;50.866;4.398;2023-06-19T13:58:37;1999.90;;;999.90;;
29236;SDS011;16266;50.866;4.398;2023-06-19T14:01:05;1999.90;;;999.90;;